createdAt,value
2022-09-05T00:00:23.123Z,2.50
2022-09-05T00:01:27.487Z,2.80
2022-09-05T00:02:23.265Z,2.60
2022-09-05T00:03:23.224Z,2.50
2022-09-05T00:04:24.781Z,2.50
2022-09-05T00:05:23.053Z,2.80
2022-09-05T00:06:23.041Z,2.60
2022-09-05T00:07:35.989Z,2.40
2022-09-05T00:08:24.020Z,2.50
2022-09-05T00:09:23.013Z,2.50
2022-09-05T00:10:22.980Z,2.60
2022-09-05T00:11:41.004Z,2.60
2022-09-05T00:12:23.952Z,2.50
2022-09-05T00:13:23.034Z,2.70
2022-09-05T00:15:14.335Z,2.50
2022-09-05T00:15:23.934Z,2.50
2022-09-05T00:16:22.948Z,2.20
2022-09-05T00:17:22.910Z,2.70
2022-09-05T00:22:14.434Z,2.50
2022-09-05T00:24:18.631Z,2.50
2022-09-05T00:24:19.987Z,2.50
2022-09-05T00:24:27.971Z,2.60
2022-09-05T00:24:29.054Z,2.70
2022-09-05T00:24:32.507Z,2.70
2022-09-05T00:24:43.588Z,2.80
2022-09-05T00:25:32.338Z,2.50
2022-09-05T00:26:23.783Z,2.80
2022-09-05T00:27:22.789Z,2.50
2022-09-05T00:28:25.918Z,2.50
2022-09-05T00:29:42.041Z,2.90
2022-09-05T00:31:08.737Z,2.70
2022-09-05T00:31:54.681Z,2.30
2022-09-05T00:32:23.732Z,2.70
2022-09-05T00:33:22.701Z,2.30
2022-09-05T00:34:22.673Z,2.70
2022-09-05T00:35:25.937Z,2.40
2022-09-05T00:36:22.641Z,2.70
2022-09-05T00:37:22.639Z,2.50
2022-09-05T00:38:26.244Z,2.70
2022-09-05T00:39:23.669Z,2.60
2022-09-05T00:40:22.647Z,2.50
2022-09-05T00:41:22.580Z,2.70
2022-09-05T00:42:22.568Z,2.40
2022-09-05T00:43:22.611Z,2.80
2022-09-05T00:44:22.547Z,2.50
2022-09-05T00:45:22.527Z,2.50
2022-09-05T00:46:22.571Z,2.80
2022-09-05T00:47:22.515Z,3.00
2022-09-05T00:48:22.506Z,2.40
2022-09-05T00:49:22.482Z,2.60
2022-09-05T00:50:22.467Z,2.50
2022-09-05T00:51:29.344Z,2.50
2022-09-05T00:52:23.437Z,2.60
2022-09-05T00:53:22.477Z,2.60
2022-09-05T00:54:24.818Z,2.70
2022-09-05T00:55:23.407Z,2.60
2022-09-05T00:56:22.388Z,2.40
2022-09-05T00:57:22.378Z,2.80
2022-09-05T00:58:22.376Z,2.70
2022-09-05T00:59:22.357Z,2.40
2022-09-05T01:00:22.336Z,2.40
2022-09-05T01:01:22.368Z,2.60
2022-09-05T01:02:22.422Z,2.50
2022-09-05T01:03:22.309Z,2.40
2022-09-05T01:04:22.291Z,2.50
2022-09-05T01:05:22.271Z,2.70
2022-09-05T01:06:22.255Z,2.90
2022-09-05T01:07:22.266Z,2.40
2022-09-05T01:08:22.250Z,2.90
2022-09-05T01:09:22.229Z,2.60
2022-09-05T01:10:23.682Z,2.60
2022-09-05T01:11:22.196Z,2.60
2022-09-05T01:12:22.186Z,2.70
2022-09-05T01:13:22.193Z,2.40
2022-09-05T01:14:22.167Z,2.50
2022-09-05T01:15:22.149Z,2.30
2022-09-05T01:16:22.178Z,3.00
2022-09-05T01:17:22.132Z,2.70
2022-09-05T01:18:22.122Z,2.90
2022-09-05T01:19:22.095Z,2.60
2022-09-05T01:20:22.086Z,2.60
2022-09-05T01:21:22.080Z,2.70
2022-09-05T01:22:22.054Z,2.80
2022-09-05T01:23:22.062Z,2.60
2022-09-05T01:24:27.796Z,2.30
2022-09-05T01:25:23.016Z,2.70
2022-09-05T01:26:22.003Z,2.50
2022-09-05T01:27:21.995Z,2.50
2022-09-05T01:29:17.128Z,2.70
2022-09-05T01:29:22.963Z,2.50
2022-09-05T01:30:21.958Z,2.40
2022-09-05T01:31:23.016Z,2.70
2022-09-05T01:32:21.925Z,2.40
2022-09-05T01:33:21.953Z,2.40
2022-09-05T01:34:29.639Z,2.90
2022-09-05T01:35:22.896Z,2.70
2022-09-05T01:36:21.874Z,2.30
2022-09-05T01:37:26.667Z,2.80
2022-09-05T01:38:22.855Z,2.40
2022-09-05T01:40:01.737Z,2.40
2022-09-05T01:40:22.897Z,2.70
2022-09-05T01:41:21.884Z,2.60
2022-09-05T01:42:21.803Z,2.70
2022-09-05T01:43:21.856Z,2.80
2022-09-05T01:44:21.773Z,2.70
2022-09-05T01:45:21.761Z,2.70
2022-09-05T01:46:21.805Z,2.80
2022-09-05T01:47:29.311Z,2.50
2022-09-05T01:48:22.732Z,2.50
2022-09-05T01:49:21.702Z,2.30
2022-09-05T01:50:21.691Z,2.30
2022-09-05T01:51:29.090Z,2.20
2022-09-05T01:52:22.672Z,2.60
2022-09-05T01:53:21.686Z,2.50
2022-09-05T01:54:25.082Z,2.70
2022-09-05T01:55:22.632Z,2.60
2022-09-05T01:56:21.612Z,2.60
2022-09-05T01:57:21.609Z,2.60
2022-09-05T01:58:21.601Z,2.60
2022-09-05T01:59:21.581Z,2.30
2022-09-05T02:00:21.574Z,2.40
2022-09-05T02:01:26.999Z,2.60
2022-09-05T02:02:22.655Z,2.30
2022-09-05T02:03:21.716Z,2.60
2022-09-05T02:04:21.512Z,2.60
2022-09-05T02:05:47.234Z,3.00
2022-09-05T02:06:22.489Z,2.40
2022-09-05T02:07:30.806Z,2.40
2022-09-05T02:08:22.479Z,2.50
2022-09-05T02:09:21.459Z,2.60
2022-09-05T02:10:21.439Z,2.30
2022-09-05T02:11:35.607Z,2.10
2022-09-05T02:12:22.408Z,2.10
2022-09-05T02:13:21.481Z,2.30
2022-09-05T02:14:24.402Z,2.10
2022-09-05T02:15:22.368Z,2.20
2022-09-05T02:16:21.390Z,2.10
2022-09-05T02:17:23.658Z,2.00
2022-09-05T02:18:22.343Z,2.10
2022-09-05T02:19:21.333Z,2.10
2022-09-05T02:20:23.548Z,1.90
2022-09-05T02:21:21.299Z,2.40
2022-09-05T02:22:21.289Z,2.00
2022-09-05T02:23:31.049Z,2.20
2022-09-05T02:24:22.269Z,1.80
2022-09-05T02:26:00.354Z,2.20
2022-09-05T02:26:22.228Z,2.10
2022-09-05T02:27:56.423Z,2.30
2022-09-05T02:28:22.227Z,2.00
2022-09-05T02:29:28.604Z,1.80
2022-09-05T02:30:22.181Z,2.10
2022-09-05T02:31:21.238Z,2.20
2022-09-05T02:32:21.163Z,2.20
2022-09-05T02:33:21.178Z,2.20
2022-09-05T02:34:21.145Z,2.10
2022-09-05T02:35:21.117Z,2.00
2022-09-05T02:36:21.116Z,1.80
2022-09-05T02:37:33.785Z,2.00
2022-09-05T02:40:19.011Z,1.70
2022-09-05T02:44:51.555Z,1.80
2022-09-05T02:45:01.889Z,1.60
2022-09-05T02:45:07.126Z,1.90
2022-09-05T02:45:09.793Z,1.90
2022-09-05T02:45:12.929Z,1.80
2022-09-05T02:45:21.004Z,1.80
2022-09-05T02:45:27.271Z,1.90
2022-09-05T02:46:22.021Z,1.80
2022-09-05T02:47:20.959Z,1.70
2022-09-05T02:48:20.946Z,1.90
2022-09-05T02:50:07.021Z,1.70
2022-09-05T02:54:27.758Z,2.00
2022-09-05T02:57:26.856Z,1.60
2022-09-05T02:57:30.163Z,1.80
2022-09-05T02:57:33.864Z,2.00
2022-09-05T02:57:34.404Z,1.80
2022-09-05T02:57:39.224Z,2.10
2022-09-05T02:57:42.881Z,1.90
2022-09-05T02:57:47.030Z,1.80
2022-09-05T02:58:21.880Z,2.00
2022-09-05T02:59:20.815Z,1.70
2022-09-05T03:00:21.795Z,1.80
2022-09-05T03:01:20.850Z,1.80
2022-09-05T03:02:25.240Z,1.80
2022-09-05T03:03:21.775Z,1.60
2022-09-05T03:04:20.744Z,1.60
2022-09-05T03:05:20.748Z,2.00
2022-09-05T03:06:32.112Z,1.70
2022-09-05T03:07:21.706Z,1.90
2022-09-05T03:08:20.837Z,1.90
2022-09-05T03:09:20.703Z,1.60
2022-09-05T03:10:28.330Z,1.70
2022-09-05T03:11:21.663Z,2.10
2022-09-05T03:12:28.545Z,1.40
2022-09-05T03:13:21.648Z,1.50
2022-09-05T03:14:20.623Z,1.80
2022-09-05T03:15:23.144Z,1.60
2022-09-05T03:16:20.651Z,1.40
2022-09-05T03:17:20.575Z,1.90
2022-09-05T03:18:21.617Z,1.70
2022-09-05T03:19:20.573Z,1.60
2022-09-05T03:20:20.554Z,1.50
2022-09-05T03:21:20.522Z,1.60
2022-09-05T03:22:22.437Z,1.80
2022-09-05T03:23:20.502Z,1.60
2022-09-05T03:24:20.517Z,1.50
2022-09-05T03:25:20.481Z,1.60
2022-09-05T03:26:20.471Z,1.70
2022-09-05T03:27:20.453Z,1.70
2022-09-05T03:28:20.531Z,1.80
2022-09-05T03:29:20.433Z,1.50
2022-09-05T03:30:20.412Z,1.30
2022-09-05T03:31:22.853Z,1.60
2022-09-05T03:32:20.394Z,1.70
2022-09-05T03:33:20.375Z,1.50
2022-09-05T03:34:20.383Z,1.60
2022-09-05T03:35:20.341Z,1.60
2022-09-05T03:36:20.331Z,1.50
2022-09-05T03:37:20.323Z,1.70
2022-09-05T03:38:20.358Z,1.80
2022-09-05T03:39:20.315Z,1.80
2022-09-05T03:40:20.297Z,1.80
2022-09-05T03:41:20.269Z,1.40
2022-09-05T03:42:20.260Z,1.80
2022-09-05T03:43:20.250Z,1.80
2022-09-05T03:44:20.251Z,1.70
2022-09-05T03:45:27.882Z,1.60
2022-09-05T03:46:21.220Z,1.70
2022-09-05T03:47:20.200Z,1.70
2022-09-05T03:48:28.872Z,1.70
2022-09-05T03:51:18.411Z,1.50
2022-09-05T03:54:19.123Z,1.60
2022-09-05T03:57:07.219Z,1.60
2022-09-05T03:57:11.480Z,1.60
2022-09-05T03:57:12.567Z,1.40
2022-09-05T03:57:16.513Z,1.70
2022-09-05T03:57:19.763Z,1.70
2022-09-05T03:57:27.283Z,1.90
2022-09-05T03:57:38.449Z,1.60
2022-09-05T03:58:28.115Z,1.90
2022-09-05T03:59:21.050Z,1.70
2022-09-05T04:00:20.030Z,1.60
2022-09-05T04:01:58.883Z,1.60
2022-09-05T04:07:03.593Z,1.40
2022-09-05T04:08:06.830Z,1.80
2022-09-05T04:08:08.536Z,1.40
2022-09-05T04:08:18.541Z,1.90
2022-09-05T04:08:27.566Z,1.80
2022-09-05T04:08:31.174Z,1.50
2022-09-05T04:08:32.099Z,1.70
2022-09-05T04:09:37.284Z,1.60
2022-09-05T04:10:21.058Z,1.60
2022-09-05T04:11:19.879Z,1.60
2022-09-05T04:12:19.868Z,1.60
2022-09-05T04:13:19.878Z,1.60
2022-09-05T04:14:19.849Z,1.60
2022-09-05T04:15:19.827Z,1.60
2022-09-05T04:16:19.882Z,1.70
2022-09-05T04:17:19.807Z,1.70
2022-09-05T04:18:32.912Z,1.50
2022-09-05T04:19:20.799Z,1.60
2022-09-05T04:20:19.784Z,1.60
2022-09-05T04:21:19.761Z,1.30
2022-09-05T04:22:19.747Z,1.70
2022-09-05T04:23:19.737Z,1.60
2022-09-05T04:24:19.740Z,1.60
2022-09-05T04:25:19.707Z,1.70
2022-09-05T04:26:19.709Z,1.50
2022-09-05T04:27:19.690Z,1.40
2022-09-05T04:28:19.751Z,1.50
2022-09-05T04:29:19.663Z,1.70
2022-09-05T04:30:38.515Z,1.70
2022-09-05T04:31:20.649Z,1.60
2022-09-05T04:32:19.866Z,1.60
2022-09-05T04:33:19.595Z,1.60
2022-09-05T04:34:19.617Z,1.70
2022-09-05T04:35:19.577Z,1.60
2022-09-05T04:36:19.577Z,1.80
2022-09-05T04:37:19.546Z,1.50
2022-09-05T04:38:19.562Z,1.50
2022-09-05T04:39:19.533Z,1.70
2022-09-05T04:40:19.506Z,1.70
2022-09-05T04:41:19.494Z,1.60
2022-09-05T04:42:20.483Z,1.50
2022-09-05T04:43:19.467Z,1.60
2022-09-05T04:44:19.474Z,1.40
2022-09-05T04:45:24.245Z,1.50
2022-09-05T04:46:20.470Z,1.60
2022-09-05T04:47:19.415Z,1.90
2022-09-05T04:48:21.572Z,1.60
2022-09-05T04:49:20.434Z,1.60
2022-09-05T04:50:23.718Z,1.50
2022-09-05T04:51:19.363Z,1.60
2022-09-05T04:52:31.061Z,1.80
2022-09-05T04:53:20.336Z,1.70
2022-09-05T04:54:19.349Z,1.80
2022-09-05T04:55:19.315Z,1.60
2022-09-05T04:56:19.310Z,1.90
2022-09-05T04:57:19.283Z,1.70
2022-09-05T04:58:19.322Z,1.80
2022-09-05T05:02:47.951Z,1.70
2022-09-05T05:05:58.461Z,1.70
2022-09-05T05:06:03.208Z,1.90
2022-09-05T05:06:03.643Z,1.80
2022-09-05T05:06:11.232Z,2.00
2022-09-05T05:06:12.589Z,1.80
2022-09-05T05:06:19.104Z,1.90
2022-09-05T05:06:38.254Z,1.80
2022-09-05T05:07:20.278Z,1.50
2022-09-05T05:08:28.946Z,1.90
2022-09-05T05:09:20.144Z,1.60
2022-09-05T05:14:23.276Z,1.60
2022-09-05T05:17:54.302Z,1.90
2022-09-05T05:17:59.870Z,2.20
2022-09-05T05:18:00.299Z,2.00
2022-09-05T05:18:08.286Z,1.90
2022-09-05T05:18:10.906Z,2.10
2022-09-05T05:18:14.682Z,1.60
2022-09-05T05:18:16.251Z,1.90
2022-09-05T05:18:37.578Z,1.90
2022-09-05T05:19:22.032Z,1.80
2022-09-05T05:20:40.074Z,2.00
2022-09-05T05:21:19.970Z,2.00
2022-09-05T05:22:18.965Z,2.00
2022-09-05T05:23:18.964Z,1.70
2022-09-05T05:24:21.780Z,1.90
2022-09-05T05:25:18.929Z,1.60
2022-09-05T05:26:18.912Z,1.80
2022-09-05T05:27:18.905Z,2.10
2022-09-05T05:28:24.294Z,2.40
2022-09-05T05:29:19.922Z,2.00
2022-09-05T05:30:18.863Z,2.00
2022-09-05T05:31:18.911Z,2.10
2022-09-05T05:32:31.628Z,2.00
2022-09-05T05:33:19.830Z,1.90
2022-09-05T05:34:24.622Z,2.50
2022-09-05T05:35:19.792Z,2.00
2022-09-05T05:36:18.779Z,2.10
2022-09-05T05:37:18.769Z,2.00
2022-09-05T05:38:18.750Z,2.10
2022-09-05T05:39:18.759Z,2.00
2022-09-05T05:40:18.729Z,1.80
2022-09-05T05:41:18.720Z,1.80
2022-09-05T05:42:20.702Z,2.00
2022-09-05T05:43:18.699Z,2.00
2022-09-05T05:44:18.689Z,1.90
2022-09-05T05:45:18.677Z,2.30
2022-09-05T05:46:18.728Z,1.70
2022-09-05T05:47:18.646Z,1.90
2022-09-05T05:48:19.663Z,2.20
2022-09-05T05:49:18.630Z,1.90
2022-09-05T05:50:18.606Z,2.10
2022-09-05T05:51:18.579Z,2.00
2022-09-05T05:52:18.567Z,1.90
2022-09-05T05:53:33.448Z,2.30
2022-09-05T05:54:19.566Z,1.80
2022-09-05T05:55:50.682Z,1.80
2022-09-05T05:56:19.508Z,1.80
2022-09-05T05:57:18.510Z,1.80
2022-09-05T05:58:18.489Z,2.10
2022-09-05T05:59:21.322Z,1.70
2022-09-05T06:00:24.570Z,2.00
2022-09-05T06:01:38.140Z,1.90
2022-09-05T06:02:19.541Z,1.60
2022-09-05T06:03:26.387Z,1.90
2022-09-05T06:04:19.428Z,2.00
2022-09-05T06:05:18.408Z,2.00
2022-09-05T06:06:18.385Z,2.10
2022-09-05T06:07:18.395Z,1.90
2022-09-05T06:11:15.985Z,1.90
2022-09-05T06:14:02.504Z,2.30
2022-09-05T06:14:52.867Z,1.80
2022-09-05T06:14:54.846Z,1.90
2022-09-05T06:15:01.179Z,1.80
2022-09-05T06:15:01.182Z,2.20
2022-09-05T06:15:09.169Z,1.90
2022-09-05T06:15:22.811Z,2.00
2022-09-05T06:16:18.312Z,2.40
2022-09-05T06:17:19.986Z,1.80
2022-09-05T06:18:19.234Z,1.90
2022-09-05T06:19:18.237Z,1.60
2022-09-05T06:22:04.441Z,1.70
2022-09-05T06:22:10.455Z,1.70
2022-09-05T06:22:21.197Z,1.90
2022-09-05T06:23:28.795Z,1.90
2022-09-05T06:24:21.151Z,1.80
2022-09-05T06:25:18.146Z,1.80
2022-09-05T06:26:18.135Z,1.80
2022-09-05T06:27:18.124Z,1.70
2022-09-05T06:28:20.091Z,1.70
2022-09-05T06:29:18.114Z,1.80
2022-09-05T06:30:18.082Z,1.90
2022-09-05T06:31:30.440Z,1.80
2022-09-05T06:32:19.087Z,1.70
2022-09-05T06:33:18.053Z,1.50
2022-09-05T06:34:35.043Z,1.60
2022-09-05T06:35:19.026Z,1.70
2022-09-05T06:36:18.005Z,1.80
2022-09-05T06:37:17.986Z,1.70
2022-09-05T06:38:17.973Z,1.60
2022-09-05T06:39:17.989Z,1.70
2022-09-05T06:40:17.951Z,2.10
2022-09-05T06:41:17.944Z,1.50
2022-09-05T06:42:39.144Z,1.40
2022-09-05T06:43:18.922Z,1.40
2022-09-05T06:44:17.903Z,1.50
2022-09-05T06:45:28.341Z,1.70
2022-09-05T06:46:54.374Z,1.50
2022-09-05T06:47:23.207Z,1.50
2022-09-05T06:48:44.277Z,1.50
2022-09-05T06:49:28.986Z,1.60
2022-09-05T06:50:24.002Z,1.40
2022-09-05T06:51:18.804Z,1.80
2022-09-05T06:52:28.218Z,1.40
2022-09-05T06:53:20.007Z,1.40
2022-09-05T06:54:17.781Z,1.30
2022-09-05T06:55:17.763Z,1.40
2022-09-05T06:56:25.602Z,1.50
2022-09-05T06:57:18.733Z,1.50
2022-09-05T06:58:17.712Z,1.40
2022-09-05T06:59:17.721Z,1.60
2022-09-05T07:00:22.229Z,1.40
2022-09-05T07:01:18.812Z,1.50
2022-09-05T07:02:17.707Z,1.50
2022-09-05T07:03:18.686Z,1.50
2022-09-05T07:04:33.220Z,1.30
2022-09-05T07:05:37.696Z,1.40
2022-09-05T07:06:20.281Z,1.70
2022-09-05T07:07:17.601Z,1.50
2022-09-05T07:08:34.918Z,1.30
2022-09-05T07:09:18.603Z,1.50
2022-09-05T07:10:37.540Z,1.60
2022-09-05T07:11:18.553Z,1.40
2022-09-05T07:12:17.532Z,1.30
2022-09-05T07:13:17.532Z,1.60
2022-09-05T07:14:17.525Z,1.40
2022-09-05T07:15:17.511Z,1.60
2022-09-05T07:16:17.527Z,1.40
2022-09-05T07:17:18.470Z,1.50
2022-09-05T07:18:17.462Z,1.40
2022-09-05T07:19:17.460Z,1.40
2022-09-05T07:20:17.430Z,1.40
2022-09-05T07:21:26.205Z,1.50
2022-09-05T07:22:46.247Z,1.40
2022-09-05T07:24:05.572Z,1.40
2022-09-05T07:24:45.611Z,1.30
2022-09-05T07:25:18.761Z,1.30
2022-09-05T07:26:25.283Z,1.50
2022-09-05T07:27:18.350Z,1.30
2022-09-05T07:28:28.750Z,1.30
2022-09-05T07:29:18.330Z,1.30
2022-09-05T07:30:17.319Z,1.60
2022-09-05T07:31:37.220Z,1.40
2022-09-05T07:32:22.383Z,1.30
2022-09-05T07:33:18.261Z,1.40
2022-09-05T07:34:20.441Z,1.50
2022-09-05T07:35:17.252Z,1.30
2022-09-05T07:36:17.237Z,1.30
2022-09-05T07:37:17.208Z,1.20
2022-09-05T07:38:17.202Z,1.70
2022-09-05T07:39:28.402Z,1.40
2022-09-05T07:40:26.327Z,1.40
2022-09-05T07:41:18.169Z,1.40
2022-09-05T07:42:17.156Z,1.40
2022-09-05T07:43:18.993Z,1.40
2022-09-05T07:44:17.137Z,1.40
2022-09-05T07:45:17.108Z,1.50
2022-09-05T07:46:17.184Z,1.60
2022-09-05T07:47:17.089Z,1.50
2022-09-05T07:48:17.078Z,1.40
2022-09-05T07:49:18.068Z,1.40
2022-09-05T07:52:39.697Z,1.20
2022-09-05T07:54:42.371Z,1.50
2022-09-05T07:56:49.149Z,1.30
2022-09-05T07:56:53.851Z,1.40
2022-09-05T07:56:54.147Z,1.20
2022-09-05T07:57:08.983Z,1.20
2022-09-05T07:57:17.490Z,1.30
2022-09-05T07:57:30.075Z,1.20
2022-09-05T07:58:17.939Z,1.30
2022-09-05T07:59:16.938Z,1.30
2022-09-05T08:00:26.490Z,1.40
2022-09-05T08:01:18.014Z,1.40
2022-09-05T08:02:16.908Z,1.30
2022-09-05T08:03:16.877Z,1.00
2022-09-05T08:04:16.885Z,1.10
2022-09-05T08:05:16.934Z,1.20
2022-09-05T08:06:37.545Z,1.20
2022-09-05T08:07:48.121Z,1.30
2022-09-05T08:08:17.818Z,1.10
2022-09-05T08:10:09.893Z,1.10
2022-09-05T08:10:17.793Z,1.30
2022-09-05T08:11:24.119Z,1.20
2022-09-05T08:12:17.757Z,1.30
2022-09-05T08:13:23.573Z,1.10
2022-09-05T08:14:41.779Z,1.20
2022-09-05T08:15:17.717Z,1.20
2022-09-05T08:16:16.779Z,1.30
2022-09-05T08:17:16.705Z,1.20
2022-09-05T08:18:16.686Z,1.20
2022-09-05T08:19:16.687Z,1.00
2022-09-05T08:20:16.667Z,1.20
2022-09-05T08:21:16.646Z,1.10
2022-09-05T08:22:17.639Z,1.20
2022-09-05T08:23:16.625Z,1.10
2022-09-05T08:24:16.626Z,1.00
2022-09-05T08:25:16.594Z,1.20
2022-09-05T08:26:16.586Z,1.40
2022-09-05T08:27:17.033Z,1.20
2022-09-05T08:28:16.559Z,1.30
2022-09-05T08:29:16.558Z,1.10
2022-09-05T08:30:26.082Z,1.20
2022-09-05T08:31:17.536Z,1.10
2022-09-05T08:32:16.500Z,1.10
2022-09-05T08:33:16.498Z,1.10
2022-09-05T08:34:16.488Z,1.10
2022-09-05T08:35:16.482Z,1.10
2022-09-05T08:36:16.455Z,0.80
2022-09-05T08:37:17.842Z,0.90
2022-09-05T08:38:17.426Z,1.20
2022-09-05T08:39:16.433Z,1.10
2022-09-05T08:40:16.497Z,1.00
2022-09-05T08:41:16.407Z,0.90
2022-09-05T08:42:16.379Z,1.20
2022-09-05T08:45:56.536Z,1.10
2022-09-05T08:46:43.161Z,1.20
2022-09-05T08:46:44.682Z,1.00
2022-09-05T08:46:47.329Z,0.90
2022-09-05T08:47:17.376Z,1.30
2022-09-05T08:48:16.304Z,1.10
2022-09-05T08:49:24.413Z,1.30
2022-09-05T08:50:17.276Z,1.00
2022-09-05T08:51:16.267Z,1.10
2022-09-05T08:52:16.259Z,1.10
2022-09-05T08:53:26.206Z,0.90
2022-09-05T08:54:17.235Z,1.00
2022-09-05T08:55:16.215Z,0.80
2022-09-05T08:56:18.084Z,1.10
2022-09-05T08:57:16.195Z,1.00
2022-09-05T08:58:16.166Z,0.90
2022-09-05T08:59:32.431Z,0.90
2022-09-05T09:00:20.300Z,0.70
2022-09-05T09:01:17.204Z,0.80
2022-09-05T09:02:47.547Z,1.10
2022-09-05T09:03:17.161Z,1.00
2022-09-05T09:04:16.105Z,0.90
2022-09-05T09:05:17.133Z,1.10
2022-09-05T09:06:16.312Z,1.00
2022-09-05T09:07:47.374Z,0.90
2022-09-05T09:08:17.043Z,0.70
2022-09-05T09:09:16.036Z,1.20
2022-09-05T09:10:25.700Z,1.20
2022-09-05T09:11:17.022Z,0.90
2022-09-05T09:12:15.994Z,1.00
2022-09-05T09:13:15.989Z,0.90
2022-09-05T09:14:30.146Z,1.00
2022-09-05T09:15:16.964Z,0.90
2022-09-05T09:16:15.988Z,0.80
2022-09-05T09:17:15.935Z,0.70
2022-09-05T09:18:15.915Z,0.90
2022-09-05T09:19:15.917Z,0.80
2022-09-05T09:20:15.890Z,0.90
2022-09-05T09:21:15.883Z,1.00
2022-09-05T09:22:15.866Z,1.10
2022-09-05T09:23:32.402Z,1.00
2022-09-05T09:24:16.965Z,1.00
2022-09-05T09:25:17.199Z,1.10
2022-09-05T09:26:15.849Z,1.10
2022-09-05T09:27:15.807Z,0.90
2022-09-05T09:28:48.242Z,1.10
2022-09-05T09:29:16.806Z,1.10
2022-09-05T09:30:15.768Z,0.80
2022-09-05T09:31:15.811Z,0.90
2022-09-05T09:32:15.745Z,0.70
2022-09-05T09:33:15.757Z,1.00
2022-09-05T09:34:15.725Z,0.90
2022-09-05T09:35:15.730Z,0.90
2022-09-05T09:36:15.695Z,0.90
2022-09-05T09:37:15.676Z,0.90
2022-09-05T09:38:15.675Z,0.90
2022-09-05T09:39:37.618Z,0.80
2022-09-05T09:40:16.689Z,1.00
2022-09-05T09:41:15.639Z,0.80
2022-09-05T09:42:32.748Z,0.80
2022-09-05T09:43:16.604Z,0.70
2022-09-05T09:44:15.597Z,0.80
2022-09-05T09:45:27.578Z,0.90
2022-09-05T09:46:16.610Z,0.90
2022-09-05T09:47:15.556Z,0.60
2022-09-05T09:48:15.536Z,0.90
2022-09-05T09:49:23.163Z,0.90
2022-09-05T09:50:16.516Z,0.80
2022-09-05T09:51:15.516Z,0.90
2022-09-05T09:52:19.523Z,0.70
2022-09-05T09:53:16.485Z,1.00
2022-09-05T09:54:15.478Z,0.90
2022-09-05T09:55:21.299Z,0.80
2022-09-05T09:56:16.436Z,0.80
2022-09-05T09:57:15.436Z,1.30
2022-09-05T09:58:15.415Z,0.80
2022-09-05T09:59:15.423Z,1.00
2022-09-05T10:00:15.396Z,0.90
2022-09-05T10:01:21.533Z,0.90
2022-09-05T10:03:24.045Z,0.80
2022-09-05T10:07:01.423Z,0.80
2022-09-05T10:10:32.765Z,0.90
2022-09-05T10:10:34.568Z,0.90
2022-09-05T10:10:45.726Z,1.00
2022-09-05T10:10:47.955Z,0.90
2022-09-05T10:10:49.905Z,1.10
2022-09-05T10:10:52.404Z,0.90
2022-09-05T10:10:58.570Z,0.80
2022-09-05T10:11:51.987Z,0.90
2022-09-05T10:12:16.400Z,0.90
2022-09-05T10:13:15.237Z,0.70
2022-09-05T10:14:24.170Z,0.90
2022-09-05T10:15:31.724Z,1.00
2022-09-05T10:16:16.241Z,0.90
2022-09-05T10:17:15.192Z,0.90
2022-09-05T10:18:15.166Z,0.90
2022-09-05T10:19:15.167Z,0.80
2022-09-05T10:20:15.148Z,0.90
2022-09-05T10:21:17.576Z,0.80
2022-09-05T10:23:16.109Z,0.70
2022-09-05T10:24:15.107Z,0.80
2022-09-05T10:25:19.601Z,0.80
2022-09-05T10:26:16.358Z,0.90
2022-09-05T10:27:15.056Z,0.80
2022-09-05T10:28:15.045Z,0.80
2022-09-05T10:29:35.129Z,0.80
2022-09-05T10:30:16.016Z,0.90
2022-09-05T10:33:24.243Z,0.90
2022-09-05T10:35:02.807Z,1.10
2022-09-05T10:35:15.174Z,0.80
2022-09-05T10:35:17.389Z,0.80
2022-09-05T10:35:22.148Z,0.80
2022-09-05T10:36:17.596Z,1.10
2022-09-05T10:37:14.935Z,0.80
2022-09-05T10:38:14.917Z,0.80
2022-09-05T10:39:14.977Z,0.90
2022-09-05T10:40:14.899Z,0.80
2022-09-05T10:41:22.518Z,1.00
2022-09-05T10:42:15.868Z,0.90
2022-09-05T10:43:14.858Z,0.90
2022-09-05T10:44:14.858Z,1.00
2022-09-05T10:45:14.828Z,0.90
2022-09-05T10:46:39.780Z,1.10
2022-09-05T10:47:15.851Z,0.80
2022-09-05T10:48:14.797Z,1.10
2022-09-05T10:49:14.788Z,0.90
2022-09-05T10:50:14.767Z,0.80
2022-09-05T10:51:27.734Z,0.80
2022-09-05T10:52:19.007Z,1.90
2022-09-05T10:53:14.737Z,0.70
2022-09-05T10:54:14.728Z,0.90
2022-09-05T10:55:15.630Z,1.00
2022-09-05T10:56:14.688Z,0.80
2022-09-05T10:57:14.691Z,1.10
2022-09-05T10:58:14.678Z,0.90
2022-09-05T11:02:19.337Z,1.10
2022-09-05T11:02:21.540Z,0.70
2022-09-05T11:02:24.542Z,0.90
2022-09-05T11:02:26.177Z,0.90
2022-09-05T11:03:22.891Z,1.20
2022-09-05T11:04:15.764Z,0.70
2022-09-05T11:05:14.628Z,0.70
2022-09-05T11:06:14.578Z,1.00
2022-09-05T11:07:14.577Z,0.80
2022-09-05T11:08:14.542Z,0.90
2022-09-05T11:09:16.587Z,1.30
2022-09-05T11:10:14.519Z,0.90
2022-09-05T11:11:17.267Z,0.90
2022-09-05T11:12:15.489Z,1.00
2022-09-05T11:13:14.558Z,0.80
2022-09-05T11:14:26.984Z,1.10
2022-09-05T11:15:15.470Z,1.00
2022-09-05T11:16:14.490Z,1.30
2022-09-05T11:17:14.450Z,1.00
2022-09-05T11:18:14.421Z,0.80
2022-09-05T11:19:14.428Z,0.90
2022-09-05T11:20:16.293Z,0.80
2022-09-05T11:21:15.389Z,1.00
2022-09-05T11:22:23.971Z,0.90
2022-09-05T11:23:15.358Z,1.00
2022-09-05T11:24:14.362Z,0.80
2022-09-05T11:25:14.339Z,0.90
2022-09-05T11:26:14.319Z,0.80
2022-09-05T11:27:24.639Z,1.00
2022-09-05T11:28:15.300Z,0.70
2022-09-05T11:29:14.321Z,1.00
2022-09-05T11:30:30.510Z,0.80
2022-09-05T11:31:15.290Z,1.00
2022-09-05T11:34:18.209Z,0.70
2022-09-05T11:37:38.493Z,0.90
2022-09-05T11:39:49.259Z,0.70
2022-09-05T11:39:50.725Z,0.90
2022-09-05T11:39:51.148Z,0.90
2022-09-05T11:39:59.807Z,1.00
2022-09-05T11:40:07.751Z,0.80
2022-09-05T11:40:25.541Z,0.90
2022-09-05T11:40:28.469Z,0.80
2022-09-05T11:41:16.241Z,0.70
2022-09-05T11:42:14.214Z,1.00
2022-09-05T11:43:14.121Z,0.80
2022-09-05T11:44:24.826Z,0.90
2022-09-05T11:45:15.089Z,1.00
2022-09-05T11:46:14.118Z,0.80
2022-09-05T11:47:28.311Z,0.70
2022-09-05T11:48:15.049Z,0.80
2022-09-05T11:49:14.059Z,0.90
2022-09-05T11:50:14.029Z,0.80
2022-09-05T11:51:14.029Z,0.80
2022-09-05T11:52:14.011Z,1.00
2022-09-05T11:53:13.997Z,0.80
2022-09-05T11:54:13.990Z,0.70
2022-09-05T11:55:21.503Z,1.00
2022-09-05T11:56:14.960Z,0.90
2022-09-05T11:57:33.330Z,0.80
2022-09-05T11:58:43.930Z,0.80
2022-09-05T11:59:14.951Z,0.80
2022-09-05T12:00:31.568Z,0.90
2022-09-05T12:01:41.759Z,0.90
2022-09-05T12:02:23.101Z,0.90
2022-09-05T12:03:41.441Z,1.00
2022-09-05T12:04:14.895Z,0.90
2022-09-05T12:05:49.031Z,0.90
2022-09-05T12:06:14.875Z,0.80
2022-09-05T12:07:30.452Z,0.90
2022-09-05T12:08:14.812Z,0.90
2022-09-05T12:09:18.457Z,1.00
2022-09-05T12:10:43.411Z,1.00
2022-09-05T12:11:14.781Z,1.10
2022-09-05T12:12:18.714Z,0.80
2022-09-05T12:13:14.751Z,0.80
2022-09-05T12:14:21.445Z,0.90
2022-09-05T12:15:14.740Z,0.80
2022-09-05T12:16:13.739Z,0.80
2022-09-05T12:17:16.845Z,0.90
2022-09-05T12:18:19.300Z,0.80
2022-09-05T12:19:18.982Z,1.00
2022-09-05T12:20:17.092Z,0.80
2022-09-05T12:21:19.454Z,0.90
2022-09-05T12:22:18.458Z,1.30
2022-09-05T12:23:20.915Z,1.10
2022-09-05T12:25:17.969Z,1.00
2022-09-05T12:25:25.699Z,1.10
2022-09-05T12:27:36.396Z,0.80
2022-09-05T12:27:39.155Z,0.90
2022-09-05T12:29:09.665Z,0.90
2022-09-05T12:29:32.930Z,1.00
2022-09-05T12:30:14.554Z,0.80
2022-09-05T12:32:49.501Z,1.10
2022-09-05T12:35:48.742Z,0.80
2022-09-05T12:36:02.620Z,1.00
2022-09-05T12:36:08.654Z,0.80
2022-09-05T12:36:11.730Z,0.90
2022-09-05T12:40:40.362Z,1.50
2022-09-05T12:40:44.852Z,1.20
2022-09-05T12:40:45.119Z,1.10
2022-09-05T12:41:32.004Z,1.10
2022-09-05T12:41:34.469Z,1.00
2022-09-05T12:41:44.374Z,1.00
2022-09-05T12:42:20.683Z,0.90
2022-09-05T12:43:42.518Z,0.80
2022-09-05T12:44:42.143Z,0.80
2022-09-05T12:45:14.504Z,1.20
2022-09-05T12:46:18.427Z,0.70
2022-09-05T12:47:16.713Z,0.90
2022-09-05T12:48:14.352Z,0.70
2022-09-05T12:49:13.345Z,0.70
2022-09-05T12:50:15.253Z,0.60
2022-09-05T12:51:15.649Z,0.80
2022-09-05T12:52:14.293Z,0.80
2022-09-05T12:53:13.292Z,0.80
2022-09-05T12:54:32.567Z,1.00
2022-09-05T12:55:14.263Z,0.90
2022-09-05T12:59:50.918Z,0.90
2022-09-05T12:59:55.257Z,0.60
2022-09-05T13:01:46.269Z,0.70
2022-09-05T13:02:56.872Z,0.80
2022-09-05T13:02:57.795Z,0.80
2022-09-05T13:03:04.683Z,0.80
2022-09-05T13:03:08.337Z,0.80
2022-09-05T13:03:27.965Z,1.00
2022-09-05T13:04:18.598Z,0.70
2022-09-05T13:05:14.239Z,1.00
2022-09-05T13:06:25.657Z,0.80
2022-09-05T13:07:14.133Z,0.90
2022-09-05T13:08:13.123Z,0.80
2022-09-05T13:09:13.095Z,0.90
2022-09-05T13:13:02.563Z,0.80
2022-09-05T13:14:50.040Z,0.70
2022-09-05T13:14:52.472Z,0.80
2022-09-05T13:14:56.088Z,0.90
2022-09-05T13:15:02.795Z,0.90
2022-09-05T13:15:22.708Z,0.60
2022-09-05T13:16:22.766Z,0.70
2022-09-05T13:17:14.096Z,0.80
2022-09-05T13:18:13.004Z,0.80
2022-09-05T13:19:12.993Z,0.90